Time;durP1;ratioP1;P1;durP2;ratioP2;P2;SDS_P1;SDS_P2;PMS_P1;PMS_P2;Temp;Humidity;BMP_temperature;BMP_pressure;BME280_temperature;BME280_humidity;BME280_pressure;Samples;Min_cycle;Max_cycle;Signal;HPM_P1;HPM_P2
2022/08/08 00:01:43;;;;;;;;;;;21.70;79.20;;;;;;6263412;23;19934;-96
2022/08/08 00:04:25;;;;;;;;;;;21.70;78.10;;;;;;6264913;22;19932;-96
2022/08/08 00:06:56;;;;;;;;;;;21.70;78.20;;;;;;6263946;23;20382;-96
2022/08/08 00:09:33;;;;;;;;;;;21.60;78.80;;;;;;6263263;22;20018;-96
2022/08/08 00:12:01;;;;;;;;;;;21.40;79.20;;;;;;6263142;22;19961;-96
2022/08/08 00:14:46;;;;;;;;;;;21.30;80.90;;;;;;6263656;23;19944;-96
2022/08/08 00:17:22;;;;;;;;;;;21.30;81.10;;;;;;6263935;23;19960;-96
2022/08/08 00:19:50;;;;;;;;;;;21.30;81.50;;;;;;6265153;22;19966;-96
2022/08/08 00:22:51;;;;;;;;;;;21.20;81.30;;;;;;6239360;23;20352;-96
2022/08/08 00:25:29;;;;;;;;;;;21.10;82.10;;;;;;6153119;23;19932;-96
2022/08/08 00:37:23;;;;;;;;;;;21.20;78.70;;;;;;5155141;27;19945;-96
2022/08/08 00:39:56;;;;;;;;;;;21.10;80.60;;;;;;5155090;27;19937;-96
2022/08/08 00:42:41;;;;;;;;;;;21.00;80.80;;;;;;5173393;27;19948;-96
2022/08/08 00:45:21;;;;;;;;;;;21.00;80.50;;;;;;5171833;27;20357;-96
2022/08/08 00:47:48;;;;;;;;;;;21.00;80.80;;;;;;5172706;27;20009;-96
2022/08/08 00:50:20;;;;;;;;;;;21.00;80.40;;;;;;5172701;27;19954;-97
2022/08/08 00:52:49;;;;;;;;;;;21.00;80.10;;;;;;5173352;27;19942;-96
2022/08/08 00:55:34;;;;;;;;;;;20.90;79.70;;;;;;5171329;27;20045;-96
2022/08/08 00:58:15;;;;;;;;;;;20.80;79.40;;;;;;5172205;27;19971;-96
2022/08/08 01:00:41;;;;;;;;;;;20.80;79.40;;;;;;5170652;27;19947;-96
2022/08/08 01:03:18;;;;;;;;;;;20.80;79.30;;;;;;5172518;27;19948;-96
2022/08/08 01:05:58;;;;;;;;;;;20.80;81.30;;;;;;5173074;27;19951;-96
2022/08/08 01:08:43;;;;;;;;;;;20.50;82.30;;;;;;5173007;27;19955;-96
2022/08/08 01:11:25;;;;;;;;;;;20.40;81.00;;;;;;5172928;27;19945;-96
2022/08/08 01:13:57;;;;;;;;;;;20.50;80.50;;;;;;5172452;27;19950;-96
2022/08/08 01:16:26;;;;;;;;;;;20.50;79.80;;;;;;5172638;27;19946;-96
2022/08/08 01:19:25;;;;;;;;;;;20.50;79.90;;;;;;5172167;27;20015;-96
2022/08/08 01:21:52;;;;;;;;;;;20.60;79.20;;;;;;5172829;27;20003;-96
2022/08/08 01:24:39;;;;;;;;;;;20.70;78.70;;;;;;5171676;27;19959;-96
2022/08/08 01:27:18;;;;;;;;;;;20.80;78.90;;;;;;5173603;27;19931;-96
2022/08/08 01:29:59;;;;;;;;;;;20.80;79.30;;;;;;5173144;27;19945;-96
2022/08/08 01:32:31;;;;;;;;;;;20.80;78.40;;;;;;5172566;27;19949;-96
2022/08/08 01:35:19;;;;;;;;;;;20.80;76.90;;;;;;5174264;27;20001;-96
2022/08/08 01:38:03;;;;;;;;;;;20.90;76.20;;;;;;5193957;27;19956;-96
2022/08/08 01:40:44;;;;;;;;;;;20.90;75.80;;;;;;5175142;27;19943;-96
2022/08/08 01:43:10;;;;;;;;;;;21.00;75.40;;;;;;5174594;27;20041;-96
2022/08/08 01:45:43;;;;;;;;;;;21.00;75.30;;;;;;5174163;27;19946;-96
2022/08/08 01:48:27;;;;;;;;;;;21.10;75.50;;;;;;5180488;27;19949;-96
2022/08/08 01:51:00;;;;;;;;;;;21.10;75.10;;;;;;5177211;27;19945;-96
2022/08/08 01:53:44;;;;;;;;;;;21.10;75.10;;;;;;5177050;27;19947;-96
2022/08/08 01:56:16;;;;;;;;;;;21.10;75.00;;;;;;5177460;27;19969;-96
2022/08/08 01:58:45;;;;;;;;;;;21.10;75.00;;;;;;5177718;27;19944;-96
2022/08/08 02:01:15;;;;;;;;;;;21.10;76.00;;;;;;5161226;27;19940;-96
2022/08/08 02:03:43;;;;;;;;;;;21.10;77.40;;;;;;5161934;27;19968;-96
2022/08/08 02:06:36;;;;;;;;;;;21.10;78.80;;;;;;5161370;27;19948;-96
2022/08/08 02:09:05;;;;;;;;;;;21.00;77.30;;;;;;5147203;27;19945;-96
2022/08/08 02:11:47;;;;;;;;;;;21.00;76.50;;;;;;5159072;27;19972;-96
2022/08/08 02:14:18;;;;;;;;;;;21.00;75.90;;;;;;5140340;27;19978;-96
2022/08/08 02:32:56;;;;;;;;;;;21.00;75.90;;;;;;5103479;27;2038102;-96
2022/08/08 02:35:36;;;;;;;;;;;20.80;79.30;;;;;;5175470;27;19992;-96
2022/08/08 02:38:21;;;;;;;;;;;20.80;79.60;;;;;;5156241;27;19934;-96
2022/08/08 02:40:49;;;;;;;;;;;20.80;79.30;;;;;;5155641;27;19978;-96
2022/08/08 02:43:33;;;;;;;;;;;20.80;79.70;;;;;;5137432;27;19942;-96
2022/08/08 02:46:13;;;;;;;;;;;20.70;79.90;;;;;;5156249;27;20359;-96
2022/08/08 02:48:54;;;;;;;;;;;20.60;80.90;;;;;;5155633;27;20373;-96
2022/08/08 02:51:28;;;;;;;;;;;20.50;80.30;;;;;;5155536;27;19945;-96
2022/08/08 02:54:06;;;;;;;;;;;20.50;80.10;;;;;;5155618;27;20039;-96
2022/08/08 02:56:31;;;;;;;;;;;20.40;80.00;;;;;;5135669;27;20030;-96
2022/08/08 02:59:15;;;;;;;;;;;20.30;79.50;;;;;;5154102;27;19978;-96
2022/08/08 03:01:47;;;;;;;;;;;20.30;81.00;;;;;;5156079;27;19984;-96
2022/08/08 03:04:29;;;;;;;;;;;20.20;80.60;;;;;;5154213;27;19974;-96
2022/08/08 03:09:19;;;;;;;;;;;20.10;79.80;;;;;;5094464;28;19941;-96
2022/08/08 03:12:03;;;;;;;;;;;20.10;80.40;;;;;;5095482;28;20049;-96
2022/08/08 03:14:55;;;;;;;;;;;20.10;80.00;;;;;;5093601;28;19944;-96
2022/08/08 03:17:47;;;;;;;;;;;20.10;80.10;;;;;;5070293;28;19941;-96
2022/08/08 03:20:14;;;;;;;;;;;20.00;80.00;;;;;;5093348;28;19945;-96
2022/08/08 03:22:50;;;;;;;;;;;20.10;80.50;;;;;;5096304;28;19933;-96
2022/08/08 03:25:16;;;;;;;;;;;20.10;80.50;;;;;;5095565;28;19943;-96
2022/08/08 03:27:44;;;;;;;;;;;20.20;81.30;;;;;;5096036;28;20033;-96
2022/08/08 03:30:11;;;;;;;;;;;20.20;80.70;;;;;;5095916;28;19944;-96
2022/08/08 03:35:22;;;;;;;;;;;20.20;80.90;;;;;;5095972;28;19942;-96
2022/08/08 03:37:48;;;;;;;;;;;20.10;81.20;;;;;;5075152;28;19951;-96
2022/08/08 03:40:16;;;;;;;;;;;20.10;81.30;;;;;;5076943;28;19939;-96
2022/08/08 03:42:42;;;;;;;;;;;20.10;81.90;;;;;;5076500;28;20372;-96
2022/08/08 03:45:16;;;;;;;;;;;20.00;82.80;;;;;;5077459;28;19939;-96
2022/08/08 03:47:41;;;;;;;;;;;20.00;83.10;;;;;;5074628;28;20031;-96
2022/08/08 03:50:17;;;;;;;;;;;20.00;83.00;;;;;;5077591;28;19986;-96
2022/08/08 03:52:43;;;;;;;;;;;20.00;82.90;;;;;;5076827;28;19969;-96
2022/08/08 03:55:13;;;;;;;;;;;20.10;82.60;;;;;;5076998;28;19946;-96
2022/08/08 03:57:43;;;;;;;;;;;20.00;82.80;;;;;;5075369;28;19987;-96
2022/08/08 04:00:09;;;;;;;;;;;20.00;82.70;;;;;;5076860;28;19946;-96
2022/08/08 04:02:35;;;;;;;;;;;19.90;82.90;;;;;;5076129;28;19936;-96
2022/08/08 04:05:04;;;;;;;;;;;19.80;82.30;;;;;;5073230;28;19943;-96
2022/08/08 04:09:06;;;;;;;;;;;19.80;82.00;;;;;;5114100;27;19948;-96
2022/08/08 04:13:51;;;;;;;;;;;19.80;82.00;;;;;;5113813;27;19938;-96
2022/08/08 04:16:17;;;;;;;;;;;19.80;82.70;;;;;;5113371;28;20030;-96
2022/08/08 04:20:13;;;;;;;;;;;19.70;81.90;;;;;;5113039;27;20295;-96
2022/08/08 04:22:39;;;;;;;;;;;19.80;82.10;;;;;;5114104;28;20035;-96
2022/08/08 04:25:05;;;;;;;;;;;19.90;82.00;;;;;;5113291;28;20276;-96
2022/08/08 04:27:31;;;;;;;;;;;19.90;81.80;;;;;;5112049;28;20006;-96
2022/08/08 04:29:56;;;;;;;;;;;19.90;81.90;;;;;;5114453;28;19940;-96
2022/08/08 04:32:22;;;;;;;;;;;19.90;82.00;;;;;;5113977;28;19949;-96
2022/08/08 04:34:47;;;;;;;;;;;19.90;82.30;;;;;;5112434;28;19939;-96
2022/08/08 04:37:13;;;;;;;;;;;19.80;82.30;;;;;;5113574;28;20047;-96
2022/08/08 04:39:39;;;;;;;;;;;19.80;82.30;;;;;;5115831;28;19940;-96
2022/08/08 04:42:04;;;;;;;;;;;19.80;82.40;;;;;;5114855;28;19989;-96
2022/08/08 04:44:30;;;;;;;;;;;19.80;82.30;;;;;;5115013;28;19974;-96
2022/08/08 04:46:56;;;;;;;;;;;19.90;82.70;;;;;;5113540;28;20351;-96
2022/08/08 04:49:21;;;;;;;;;;;20.00;83.30;;;;;;5115404;28;19957;-96
2022/08/08 04:51:47;;;;;;;;;;;20.10;83.30;;;;;;5113775;28;20346;-96
2022/08/08 04:54:12;;;;;;;;;;;20.10;82.70;;;;;;5115343;28;19947;-96
2022/08/08 04:56:38;;;;;;;;;;;20.20;82.10;;;;;;5114605;28;20028;-96
2022/08/08 04:59:03;;;;;;;;;;;20.20;81.80;;;;;;5114890;28;19941;-96
2022/08/08 05:01:29;;;;;;;;;;;20.30;81.90;;;;;;5116191;28;20481;-96
2022/08/08 05:03:55;;;;;;;;;;;20.30;81.60;;;;;;5113972;28;19960;-96
2022/08/08 05:06:20;;;;;;;;;;;20.30;82.10;;;;;;5116407;28;19965;-96
2022/08/08 05:08:46;;;;;;;;;;;20.40;82.40;;;;;;5116692;28;19941;-96
2022/08/08 05:11:15;;;;;;;;;;;20.50;82.90;;;;;;5115631;28;19983;-96
2022/08/08 05:13:40;;;;;;;;;;;20.60;82.00;;;;;;5114755;28;20009;-96
2022/08/08 05:16:06;;;;;;;;;;;20.60;82.70;;;;;;5112456;28;20384;-96
2022/08/08 05:18:32;;;;;;;;;;;20.50;82.60;;;;;;5114605;28;20482;-96
2022/08/08 05:20:58;;;;;;;;;;;20.50;82.20;;;;;;5116375;28;19935;-96
2022/08/08 05:23:24;;;;;;;;;;;20.50;82.20;;;;;;5114575;28;19933;-96
2022/08/08 05:25:50;;;;;;;;;;;20.50;82.20;;;;;;5112778;28;20007;-96
2022/08/08 05:28:16;;;;;;;;;;;20.70;81.40;;;;;;5113872;28;20038;-96
2022/08/08 05:30:42;;;;;;;;;;;20.80;80.90;;;;;;5103954;28;20028;-96
2022/08/08 05:33:07;;;;;;;;;;;21.00;79.70;;;;;;5101789;28;19935;-96
2022/08/08 05:35:33;;;;;;;;;;;21.20;79.20;;;;;;5101682;28;19932;-96
2022/08/08 05:38:02;;;;;;;;;;;21.30;79.10;;;;;;5099631;28;19939;-96
2022/08/08 05:40:28;;;;;;;;;;;21.30;78.60;;;;;;5098526;28;19936;-96
2022/08/08 05:42:56;;;;;;;;;;;21.30;78.50;;;;;;5101651;28;19944;-96
2022/08/08 05:45:22;;;;;;;;;;;21.50;78.80;;;;;;5104192;28;20172;-96
2022/08/08 05:47:49;;;;;;;;;;;21.60;78.60;;;;;;5107076;28;20002;-96
2022/08/08 05:50:17;;;;;;;;;;;21.70;77.50;;;;;;5109359;28;19938;-96
2022/08/08 05:52:43;;;;;;;;;;;21.80;76.80;;;;;;5110705;28;19937;-96
2022/08/08 05:55:09;;;;;;;;;;;21.90;76.70;;;;;;5112035;28;19975;-96
2022/08/08 05:57:35;;;;;;;;;;;22.10;76.60;;;;;;5114008;28;19964;-96
2022/08/08 06:00:04;;;;;;;;;;;22.30;74.40;;;;;;5115067;28;20032;-96
2022/08/08 06:05:19;;;;;;;;;;;22.60;73.50;;;;;;5118400;28;19926;-96
2022/08/08 06:07:50;;;;;;;;;;;22.80;72.70;;;;;;5117651;28;19944;-96
2022/08/08 06:10:18;;;;;;;;;;;23.00;72.50;;;;;;5117184;28;19922;-96
2022/08/08 06:12:45;;;;;;;;;;;23.10;71.80;;;;;;5117717;28;19961;-96
2022/08/08 06:15:14;;;;;;;;;;;23.30;69.70;;;;;;5115775;28;19919;-96
2022/08/08 06:17:41;;;;;;;;;;;23.40;69.20;;;;;;5118562;28;19941;-96
2022/08/08 06:20:12;;;;;;;;;;;23.70;67.70;;;;;;5118958;28;19960;-96
2022/08/08 06:22:48;;;;;;;;;;;24.00;66.60;;;;;;5118784;28;19942;-96
2022/08/08 06:25:16;;;;;;;;;;;24.20;66.80;;;;;;5116659;28;20034;-96
2022/08/08 06:27:56;;;;;;;;;;;24.30;65.80;;;;;;5115337;28;19946;-96
2022/08/08 06:30:25;;;;;;;;;;;24.40;66.10;;;;;;5115296;28;19980;-96
2022/08/08 06:32:56;;;;;;;;;;;24.50;66.00;;;;;;5116615;28;19935;-96
2022/08/08 06:35:26;;;;;;;;;;;24.50;65.80;;;;;;5333191;22;20009;-96
2022/08/08 06:38:02;;;;;;;;;;;24.60;65.90;;;;;;5117918;28;19944;-96
2022/08/08 06:40:30;;;;;;;;;;;24.60;65.90;;;;;;5117359;28;19970;-96
2022/08/08 06:43:03;;;;;;;;;;;24.60;65.20;;;;;;5114879;28;19974;-96
2022/08/08 06:45:32;;;;;;;;;;;24.60;66.50;;;;;;5117728;28;19954;-96
2022/08/08 06:47:59;;;;;;;;;;;24.70;64.90;;;;;;5115630;28;19962;-96
2022/08/08 06:50:27;;;;;;;;;;;24.70;64.80;;;;;;5117279;28;19926;-96
2022/08/08 06:52:54;;;;;;;;;;;24.70;65.60;;;;;;5115620;28;19937;-96
2022/08/08 06:55:24;;;;;;;;;;;24.80;64.80;;;;;;5113757;28;19947;-96
2022/08/08 06:58:02;;;;;;;;;;;24.80;64.00;;;;;;5114114;28;19985;-96
2022/08/08 07:00:34;;;;;;;;;;;24.90;63.40;;;;;;5115310;28;19963;-96
2022/08/08 07:03:02;;;;;;;;;;;25.00;65.60;;;;;;5114473;28;19955;-96
2022/08/08 07:05:31;;;;;;;;;;;25.00;68.80;;;;;;5114187;28;19949;-96
2022/08/08 07:08:10;;;;;;;;;;;25.00;66.40;;;;;;5115539;28;19943;-96
2022/08/08 07:10:37;;;;;;;;;;;25.10;66.20;;;;;;5113868;28;19940;-96
2022/08/08 07:13:04;;;;;;;;;;;25.20;65.10;;;;;;5109202;28;19947;-96
2022/08/08 07:15:35;;;;;;;;;;;25.20;65.40;;;;;;5110863;28;19975;-96
2022/08/08 07:18:05;;;;;;;;;;;25.30;65.80;;;;;;5109578;28;19941;-96
2022/08/08 07:20:34;;;;;;;;;;;25.40;65.60;;;;;;5108963;28;19947;-96
2022/08/08 07:23:01;;;;;;;;;;;25.50;61.80;;;;;;5107920;28;19993;-96
2022/08/08 07:25:30;;;;;;;;;;;25.70;61.80;;;;;;5107236;28;19944;-96
2022/08/08 07:27:59;;;;;;;;;;;25.80;63.40;;;;;;5110692;28;19960;-96
2022/08/08 07:30:25;;;;;;;;;;;25.90;62.00;;;;;;5113591;28;20510;-96
2022/08/08 07:32:52;;;;;;;;;;;26.00;60.60;;;;;;5115280;28;19946;-96
2022/08/08 07:35:18;;;;;;;;;;;26.20;61.20;;;;;;5114157;28;19999;-96
2022/08/08 07:37:54;;;;;;;;;;;26.20;59.10;;;;;;5114618;28;19943;-96
2022/08/08 07:40:24;;;;;;;;;;;26.30;59.00;;;;;;5115720;28;19950;-96
2022/08/08 07:42:52;;;;;;;;;;;26.50;58.60;;;;;;5113111;28;19943;-96
2022/08/08 07:45:22;;;;;;;;;;;26.70;57.40;;;;;;5112334;28;20028;-96
2022/08/08 07:47:51;;;;;;;;;;;26.80;56.50;;;;;;5113241;28;19942;-96
2022/08/08 07:50:21;;;;;;;;;;;26.90;56.90;;;;;;5117287;28;19930;-96
2022/08/08 07:52:53;;;;;;;;;;;27.20;56.30;;;;;;5118190;28;19965;-97
2022/08/08 07:55:25;;;;;;;;;;;27.40;56.30;;;;;;5117910;28;19965;-96
2022/08/08 07:58:12;;;;;;;;;;;27.60;55.60;;;;;;5118476;28;19949;-96
2022/08/08 08:08:38;;;;;;;;;;;27.90;50.60;;;;;;5404558;22;19987;-96
2022/08/08 08:11:17;;;;;;;;;;;27.80;50.90;;;;;;5056164;28;19995;-96
2022/08/08 08:14:03;;;;;;;;;;;27.80;50.70;;;;;;5054079;28;19945;-96
2022/08/08 08:16:32;;;;;;;;;;;27.90;51.90;;;;;;5035654;28;19930;-96
2022/08/08 08:19:04;;;;;;;;;;;27.90;51.20;;;;;;5052157;28;19968;-96
2022/08/08 08:21:40;;;;;;;;;;;27.90;51.40;;;;;;5033774;28;19944;-96
2022/08/08 08:24:08;;;;;;;;;;;27.90;51.70;;;;;;5034316;28;19941;-96
2022/08/08 08:26:34;;;;;;;;;;;27.90;52.20;;;;;;5035529;28;19986;-96
2022/08/08 08:29:04;;;;;;;;;;;27.90;51.60;;;;;;5035765;28;19940;-96
2022/08/08 08:31:30;;;;;;;;;;;27.80;52.10;;;;;;5051961;28;20002;-96
2022/08/08 08:33:56;;;;;;;;;;;27.80;51.30;;;;;;5032658;28;19948;-96
2022/08/08 08:36:23;;;;;;;;;;;27.70;52.00;;;;;;5032950;28;19955;-96
2022/08/08 08:38:49;;;;;;;;;;;27.70;52.20;;;;;;5032546;28;19972;-96
2022/08/08 08:41:19;;;;;;;;;;;27.80;52.60;;;;;;5031159;28;19965;-96
2022/08/08 08:43:46;;;;;;;;;;;27.80;52.40;;;;;;5048883;28;19936;-96
2022/08/08 08:46:12;;;;;;;;;;;27.80;52.00;;;;;;5029840;28;20045;-96
2022/08/08 08:48:40;;;;;;;;;;;27.80;52.50;;;;;;5030887;28;19948;-96
2022/08/08 08:51:09;;;;;;;;;;;27.90;52.10;;;;;;5047382;28;19963;-96
2022/08/08 08:53:35;;;;;;;;;;;28.00;51.60;;;;;;5047145;28;19941;-96
2022/08/08 08:56:02;;;;;;;;;;;28.00;51.10;;;;;;5046495;28;19949;-96
2022/08/08 08:58:32;;;;;;;;;;;28.00;51.00;;;;;;5028973;28;19958;-96
2022/08/08 09:01:01;;;;;;;;;;;28.10;51.30;;;;;;5046974;28;19943;-96
2022/08/08 09:03:28;;;;;;;;;;;28.10;51.00;;;;;;5031966;28;19945;-96
2022/08/08 09:05:54;;;;;;;;;;;28.20;50.50;;;;;;5037718;28;20022;-96
2022/08/08 09:08:26;;;;;;;;;;;28.40;50.20;;;;;;5035846;28;20344;-96
2022/08/08 09:10:52;;;;;;;;;;;28.60;51.30;;;;;;5034289;28;19953;-96
2022/08/08 09:13:20;;;;;;;;;;;28.70;49.40;;;;;;5035269;28;19943;-96
2022/08/08 09:15:47;;;;;;;;;;;28.80;49.50;;;;;;5036197;28;20025;-96
2022/08/08 09:18:16;;;;;;;;;;;29.00;49.70;;;;;;5036228;28;19967;-96
2022/08/08 09:20:43;;;;;;;;;;;29.10;49.10;;;;;;5030792;28;19993;-96
2022/08/08 09:23:10;;;;;;;;;;;29.20;48.70;;;;;;5028714;28;19943;-96
2022/08/08 09:25:40;;;;;;;;;;;29.20;47.80;;;;;;5030050;28;19937;-96
2022/08/08 09:28:06;;;;;;;;;;;29.30;47.10;;;;;;5027655;28;19996;-96
2022/08/08 09:30:36;;;;;;;;;;;29.30;46.80;;;;;;5027863;28;19943;-96
2022/08/08 09:33:02;;;;;;;;;;;29.30;48.10;;;;;;5026055;28;19952;-96
2022/08/08 09:35:30;;;;;;;;;;;29.40;48.00;;;;;;5027601;28;19940;-96
2022/08/08 09:37:59;;;;;;;;;;;29.50;47.60;;;;;;5024804;28;19944;-96
2022/08/08 09:40:26;;;;;;;;;;;29.60;46.50;;;;;;5025476;28;19987;-96
2022/08/08 09:43:10;;;;;;;;;;;29.60;47.10;;;;;;5022971;28;19945;-96
2022/08/08 09:45:36;;;;;;;;;;;29.60;45.90;;;;;;5021224;28;19946;-96
2022/08/08 09:48:02;;;;;;;;;;;29.60;47.00;;;;;;5022152;28;19937;-96
2022/08/08 09:50:29;;;;;;;;;;;29.60;47.20;;;;;;5021605;28;19971;-96
2022/08/08 09:52:56;;;;;;;;;;;29.70;46.70;;;;;;5023845;28;19942;-96
2022/08/08 09:55:23;;;;;;;;;;;29.80;47.70;;;;;;5025094;28;20017;-96
2022/08/08 09:57:49;;;;;;;;;;;30.00;48.60;;;;;;5027182;28;19942;-96
2022/08/08 10:00:16;;;;;;;;;;;30.20;49.00;;;;;;5028685;28;19944;-96
2022/08/08 10:02:43;;;;;;;;;;;30.30;45.90;;;;;;5030620;28;19982;-96
2022/08/08 10:05:20;;;;;;;;;;;30.30;45.30;;;;;;5028051;28;19948;-96
2022/08/08 10:07:52;;;;;;;;;;;30.10;45.70;;;;;;5035662;28;20038;-96
2022/08/08 10:10:31;;;;;;;;;;;30.20;46.40;;;;;;5032445;28;19939;-96
2022/08/08 10:12:58;;;;;;;;;;;30.40;46.30;;;;;;5052516;28;19942;-96
2022/08/08 10:15:26;;;;;;;;;;;30.60;46.80;;;;;;5034706;28;20005;-96
2022/08/08 10:17:53;;;;;;;;;;;30.70;45.80;;;;;;5054862;28;19938;-96
2022/08/08 10:20:22;;;;;;;;;;;31.00;45.90;;;;;;5038740;28;19970;-96
2022/08/08 10:22:51;;;;;;;;;;;31.20;47.00;;;;;;5039992;28;19951;-96
2022/08/08 10:25:21;;;;;;;;;;;31.50;45.10;;;;;;5040372;28;19967;-96
2022/08/08 10:27:50;;;;;;;;;;;31.70;45.60;;;;;;5040247;28;19942;-96
2022/08/08 10:30:17;;;;;;;;;;;31.70;43.30;;;;;;5020863;28;20357;-96
2022/08/08 10:32:48;;;;;;;;;;;31.60;42.20;;;;;;5035389;28;19946;-96
2022/08/08 10:35:15;;;;;;;;;;;31.40;42.90;;;;;;5037061;28;20308;-96
2022/08/08 10:37:49;;;;;;;;;;;31.30;43.90;;;;;;5035233;28;20002;-97
2022/08/08 10:40:15;;;;;;;;;;;31.30;43.00;;;;;;5052209;28;19991;-96
2022/08/08 10:42:41;;;;;;;;;;;31.30;43.70;;;;;;5049311;28;20034;-96
2022/08/08 10:45:09;;;;;;;;;;;31.20;42.70;;;;;;5051474;28;20445;-96
2022/08/08 10:47:35;;;;;;;;;;;31.30;43.00;;;;;;5035154;28;19999;-96
2022/08/08 10:50:02;;;;;;;;;;;31.40;42.40;;;;;;5053036;28;19966;-96
2022/08/08 10:52:40;;;;;;;;;;;31.40;42.10;;;;;;5054652;28;19941;-96
2022/08/08 10:55:14;;;;;;;;;;;31.50;43.20;;;;;;5037697;28;19955;-96
2022/08/08 10:57:42;;;;;;;;;;;31.70;42.10;;;;;;5038048;28;20008;-96
2022/08/08 11:00:09;;;;;;;;;;;31.80;43.40;;;;;;5037060;28;19948;-96
2022/08/08 11:02:35;;;;;;;;;;;31.80;42.10;;;;;;5035194;28;19939;-96
2022/08/08 11:05:04;;;;;;;;;;;31.60;42.40;;;;;;5052183;28;19942;-96
2022/08/08 11:07:31;;;;;;;;;;;31.50;44.10;;;;;;5050956;28;19978;-96
2022/08/08 11:10:04;;;;;;;;;;;31.60;43.90;;;;;;5050150;28;19959;-96
2022/08/08 11:12:34;;;;;;;;;;;31.60;43.50;;;;;;5034874;28;19940;-96
2022/08/08 11:15:00;;;;;;;;;;;31.70;43.30;;;;;;5031820;28;19947;-96
2022/08/08 11:17:27;;;;;;;;;;;31.80;41.70;;;;;;5026898;28;20002;-96
2022/08/08 11:19:53;;;;;;;;;;;32.00;42.60;;;;;;5045408;28;20461;-96
2022/08/08 11:22:22;;;;;;;;;;;32.20;43.00;;;;;;5028442;28;19948;-96
2022/08/08 11:24:49;;;;;;;;;;;32.40;42.40;;;;;;5028886;28;20024;-96
2022/08/08 11:27:16;;;;;;;;;;;32.70;41.50;;;;;;5027353;28;19981;-96
2022/08/08 11:29:43;;;;;;;;;;;32.90;39.80;;;;;;5046106;28;19940;-96
2022/08/08 11:32:12;;;;;;;;;;;33.10;41.90;;;;;;5044942;28;19941;-96
2022/08/08 11:34:38;;;;;;;;;;;33.50;40.80;;;;;;5045350;28;20064;-96
2022/08/08 11:37:04;;;;;;;;;;;33.60;40.80;;;;;;5046582;28;19961;-96
2022/08/08 11:39:31;;;;;;;;;;;33.90;40.00;;;;;;5046853;28;19950;-96
2022/08/08 11:41:57;;;;;;;;;;;34.20;39.00;;;;;;5047056;28;19939;-96
2022/08/08 11:44:23;;;;;;;;;;;34.30;38.20;;;;;;5048123;28;19992;-96
2022/08/08 11:46:56;;;;;;;;;;;34.60;37.30;;;;;;5027765;28;20030;-96
2022/08/08 11:49:23;;;;;;;;;;;34.60;36.60;;;;;;5043749;28;19961;-96
2022/08/08 11:51:51;;;;;;;;;;;34.50;36.50;;;;;;5044909;28;19987;-96
2022/08/08 11:54:17;;;;;;;;;;;34.50;37.30;;;;;;5045024;28;19937;-96
2022/08/08 11:56:43;;;;;;;;;;;34.60;39.50;;;;;;5051618;28;19941;-96
2022/08/08 11:59:11;;;;;;;;;;;34.70;37.50;;;;;;5036955;28;19948;-96
2022/08/08 13:01:19;;;;;;;;;;;37.60;32.20;;;;;;6052919;22;4660198;-96
2022/08/08 13:03:50;;;;;;;;;;;38.50;31.00;;;;;;6223987;23;19960;-96
2022/08/08 14:24:00;;;;;;;;;;;46.10;21.70;;;;;;5991950;22;6569104;-96
2022/08/08 14:26:30;;;;;;;;;;;44.50;22.90;;;;;;6193796;23;19930;-96
2022/08/08 14:28:57;;;;;;;;;;;43.30;23.70;;;;;;6192402;23;19937;-96
2022/08/08 14:31:24;;;;;;;;;;;42.40;24.50;;;;;;6218860;23;19931;-96
2022/08/08 14:33:53;;;;;;;;;;;42.80;24.60;;;;;;6194580;23;19937;-96
2022/08/08 14:36:35;;;;;;;;;;;43.10;24.60;;;;;;6220130;23;19935;-98
2022/08/08 15:14:39;;;;;;;;;;;45.90;21.90;;;;;;6090980;23;2234265;-96
2022/08/08 15:17:05;;;;;;;;;;;45.20;22.20;;;;;;6164941;23;19922;-96
2022/08/08 15:19:42;;;;;;;;;;;45.10;22.50;;;;;;6191270;23;19965;-96
2022/08/08 16:01:12;;;;;;;;;;;42.80;23.70;;;;;;6241602;21;2409684;-96
2022/08/08 16:03:39;;;;;;;;;;;42.40;25.30;;;;;;6337339;22;19934;-96
2022/08/08 16:06:05;;;;;;;;;;;42.10;25.40;;;;;;6334661;22;20009;-96
2022/08/08 16:08:31;;;;;;;;;;;42.00;25.40;;;;;;6328174;22;19935;-96
2022/08/08 16:10:56;;;;;;;;;;;41.60;26.10;;;;;;6329756;22;19940;-96
2022/08/08 16:13:22;;;;;;;;;;;41.60;25.60;;;;;;6337466;22;19973;-96
2022/08/08 16:15:48;;;;;;;;;;;41.10;27.10;;;;;;6341237;22;19942;-96
2022/08/08 16:18:22;;;;;;;;;;;40.70;27.50;;;;;;6340203;22;19939;-96
2022/08/08 16:41:13;;;;;;;;;;;40.60;26.90;;;;;;5106768;27;20044;-96
2022/08/08 16:43:38;;;;;;;;;;;36.00;34.20;;;;;;5104053;28;19950;-96
2022/08/08 16:46:04;;;;;;;;;;;35.70;34.20;;;;;;5098896;28;19940;-96
2022/08/08 16:48:30;;;;;;;;;;;35.40;34.70;;;;;;5094953;28;19937;-96
2022/08/08 16:50:55;;;;;;;;;;;35.20;35.60;;;;;;5095269;28;19996;-96
2022/08/08 16:53:21;;;;;;;;;;;34.90;35.90;;;;;;5096150;28;19938;-96
2022/08/08 16:55:46;;;;;;;;;;;34.50;36.80;;;;;;5093633;28;19989;-96
2022/08/08 16:58:14;;;;;;;;;;;34.20;38.00;;;;;;5093809;28;19942;-96
2022/08/08 17:00:43;;;;;;;;;;;34.00;38.60;;;;;;5094734;28;20411;-96
2022/08/08 17:03:08;;;;;;;;;;;33.70;39.50;;;;;;5094784;28;19938;-96
2022/08/08 17:05:34;;;;;;;;;;;33.50;40.30;;;;;;5094954;28;19952;-96
2022/08/08 17:07:59;;;;;;;;;;;33.20;42.00;;;;;;5095212;28;19946;-96
2022/08/08 17:10:25;;;;;;;;;;;32.90;42.70;;;;;;5093351;28;20340;-96
2022/08/08 17:12:51;;;;;;;;;;;32.60;43.60;;;;;;5094999;28;20012;-96
2022/08/08 17:15:17;;;;;;;;;;;32.40;43.20;;;;;;5094348;28;19942;-96
2022/08/08 17:17:43;;;;;;;;;;;32.30;44.20;;;;;;5095744;28;20403;-96
2022/08/08 17:20:09;;;;;;;;;;;32.20;44.40;;;;;;5094834;28;19963;-96
2022/08/08 17:22:35;;;;;;;;;;;32.00;44.40;;;;;;5097120;28;19940;-96
2022/08/08 17:25:01;;;;;;;;;;;31.80;44.90;;;;;;5096647;28;19981;-96
2022/08/08 17:27:27;;;;;;;;;;;31.70;45.70;;;;;;5096680;28;19967;-96
2022/08/08 17:29:52;;;;;;;;;;;31.50;46.40;;;;;;5095900;28;19960;-96
2022/08/08 17:34:54;;;;;;;;;;;31.20;47.50;;;;;;5106951;27;2312216;-96
2022/08/08 17:37:25;;;;;;;;;;;31.00;48.00;;;;;;5166586;27;19940;-96
2022/08/08 17:41:59;;;;;;;;;;;30.90;52.20;;;;;;4961847;27;5159784;-96
2022/08/08 17:44:25;;;;;;;;;;;30.60;52.40;;;;;;5146390;28;20032;-96
2022/08/08 17:46:54;;;;;;;;;;;30.50;54.90;;;;;;5144812;28;20038;-96
2022/08/08 17:51:45;;;;;;;;;;;30.20;56.30;;;;;;5114390;27;20032;-96
2022/08/08 17:57:16;;;;;;;;;;;29.90;56.50;;;;;;5113999;27;20338;-96
2022/08/08 17:59:42;;;;;;;;;;;29.80;54.30;;;;;;5114513;28;20040;-96
2022/08/08 18:02:08;;;;;;;;;;;29.70;54.20;;;;;;5108156;28;19959;-96
2022/08/08 18:04:34;;;;;;;;;;;29.70;52.10;;;;;;5114697;28;19982;-96
2022/08/08 18:07:01;;;;;;;;;;;29.70;52.00;;;;;;5114556;28;19937;-96
2022/08/08 18:09:27;;;;;;;;;;;29.60;51.60;;;;;;5114434;28;19942;-96
2022/08/08 18:11:54;;;;;;;;;;;29.60;50.80;;;;;;5115142;28;19960;-96
2022/08/08 18:14:20;;;;;;;;;;;29.60;50.10;;;;;;5115399;28;19938;-96
2022/08/08 18:16:47;;;;;;;;;;;29.60;49.90;;;;;;5116804;28;19943;-96
2022/08/08 18:19:16;;;;;;;;;;;29.70;49.90;;;;;;5116920;28;19944;-96
2022/08/08 18:21:43;;;;;;;;;;;29.60;50.10;;;;;;5115377;28;20390;-96
2022/08/08 18:24:09;;;;;;;;;;;29.50;50.00;;;;;;5114756;28;19941;-96
2022/08/08 18:26:35;;;;;;;;;;;29.40;49.70;;;;;;5113703;28;20347;-96
2022/08/08 18:29:00;;;;;;;;;;;29.40;49.30;;;;;;5113522;28;19941;-96
2022/08/08 18:31:26;;;;;;;;;;;29.30;49.90;;;;;;5114532;28;19933;-96
2022/08/08 18:33:51;;;;;;;;;;;29.40;49.90;;;;;;5114708;28;20347;-96
2022/08/08 18:36:18;;;;;;;;;;;29.30;49.60;;;;;;5114990;28;19978;-96
2022/08/08 18:38:44;;;;;;;;;;;29.30;49.80;;;;;;5113533;28;19947;-96
2022/08/08 18:41:09;;;;;;;;;;;29.20;50.00;;;;;;5113536;28;19955;-96
2022/08/08 18:54:18;;;;;;;;;;;29.20;49.90;;;;;;5147143;27;19934;-96
2022/08/08 18:58:39;;;;;;;;;;;28.90;51.00;;;;;;5085176;28;20471;-96
2022/08/08 19:01:05;;;;;;;;;;;28.80;51.40;;;;;;5084859;28;19955;-96
2022/08/08 19:03:31;;;;;;;;;;;28.70;51.80;;;;;;5085989;28;20008;-96
2022/08/08 19:05:56;;;;;;;;;;;28.70;52.00;;;;;;5084671;28;19947;-96
2022/08/08 19:08:25;;;;;;;;;;;28.60;52.60;;;;;;5084741;28;20037;-97
2022/08/08 19:10:52;;;;;;;;;;;28.50;53.20;;;;;;5085565;28;20021;-96
2022/08/08 19:13:18;;;;;;;;;;;28.40;54.60;;;;;;5086862;28;19949;-96
2022/08/08 19:15:44;;;;;;;;;;;28.30;54.30;;;;;;5085721;28;19942;-96
2022/08/08 19:18:11;;;;;;;;;;;28.30;54.10;;;;;;5086495;28;19967;-96
2022/08/08 19:20:38;;;;;;;;;;;28.30;54.00;;;;;;5119823;28;19943;-96
2022/08/08 19:23:04;;;;;;;;;;;28.20;54.00;;;;;;5085483;28;19945;-96
2022/08/08 19:25:31;;;;;;;;;;;28.20;53.80;;;;;;5084758;28;20018;-96
2022/08/08 19:27:57;;;;;;;;;;;28.20;54.00;;;;;;5086788;28;19946;-96
2022/08/08 19:30:23;;;;;;;;;;;28.20;53.70;;;;;;5085284;28;19944;-96
2022/08/08 19:32:49;;;;;;;;;;;28.10;54.10;;;;;;5086787;28;19950;-96